sensor_id;sensor_type;location;lat;lon;timestamp;temperature;humidity
44533;DHT22;48673;53.016;-2.258;2022-07-09T00:01:04;15.80;79.10
44533;DHT22;48673;53.016;-2.258;2022-07-09T00:03:51;15.80;79.10
44533;DHT22;48673;53.016;-2.258;2022-07-09T00:06:45;15.80;79.10
44533;DHT22;48673;53.016;-2.258;2022-07-09T00:09:33;15.90;79.10
44533;DHT22;48673;53.016;-2.258;2022-07-09T00:12:25;15.90;79.10
44533;DHT22;48673;53.016;-2.258;2022-07-09T00:15:11;15.90;79.00
44533;DHT22;48673;53.016;-2.258;2022-07-09T00:17:41;15.90;78.90
44533;DHT22;48673;53.016;-2.258;2022-07-09T00:20:10;15.90;78.90
44533;DHT22;48673;53.016;-2.258;2022-07-09T00:22:38;15.90;78.90
44533;DHT22;48673;53.016;-2.258;2022-07-09T00:25:10;15.90;78.90
44533;DHT22;48673;53.016;-2.258;2022-07-09T00:27:54;15.90;78.90
44533;DHT22;48673;53.016;-2.258;2022-07-09T00:30:40;16.00;78.90
44533;DHT22;48673;53.016;-2.258;2022-07-09T00:33:09;15.90;78.90
44533;DHT22;48673;53.016;-2.258;2022-07-09T00:36:06;15.90;79.00
44533;DHT22;48673;53.016;-2.258;2022-07-09T00:39:04;15.90;79.00
44533;DHT22;48673;53.016;-2.258;2022-07-09T00:41:31;15.80;79.20
44533;DHT22;48673;53.016;-2.258;2022-07-09T00:44:06;15.70;79.40
44533;DHT22;48673;53.016;-2.258;2022-07-09T00:46:43;15.60;79.60
44533;DHT22;48673;53.016;-2.258;2022-07-09T00:49:14;15.40;80.10
44533;DHT22;48673;53.016;-2.258;2022-07-09T00:51:55;15.40;80.20
44533;DHT22;48673;53.016;-2.258;2022-07-09T00:54:45;15.40;80.30
44533;DHT22;48673;53.016;-2.258;2022-07-09T00:57:14;15.50;80.40
44533;DHT22;48673;53.016;-2.258;2022-07-09T00:59:51;15.50;80.40
44533;DHT22;48673;53.016;-2.258;2022-07-09T01:02:37;15.50;80.30
44533;DHT22;48673;53.016;-2.258;2022-07-09T01:05:32;15.50;80.30
44533;DHT22;48673;53.016;-2.258;2022-07-09T01:08:10;15.50;80.40
44533;DHT22;48673;53.016;-2.258;2022-07-09T01:10:40;15.50;80.40
44533;DHT22;48673;53.016;-2.258;2022-07-09T01:13:08;15.50;80.60
44533;DHT22;48673;53.016;-2.258;2022-07-09T01:16:31;15.50;80.60
44533;DHT22;48673;53.016;-2.258;2022-07-09T01:19:04;15.50;80.80
44533;DHT22;48673;53.016;-2.258;2022-07-09T01:21:52;15.50;81.10
44533;DHT22;48673;53.016;-2.258;2022-07-09T01:24:26;15.50;81.10
44533;DHT22;48673;53.016;-2.258;2022-07-09T01:27:00;15.50;81.10
44533;DHT22;48673;53.016;-2.258;2022-07-09T01:29:30;15.50;81.30
44533;DHT22;48673;53.016;-2.258;2022-07-09T01:32:01;15.50;81.60
44533;DHT22;48673;53.016;-2.258;2022-07-09T01:34:31;15.50;81.90
44533;DHT22;48673;53.016;-2.258;2022-07-09T01:36:58;15.40;81.90
44533;DHT22;48673;53.016;-2.258;2022-07-09T01:42:34;15.50;82.40
44533;DHT22;48673;53.016;-2.258;2022-07-09T01:45:14;15.60;82.50
44533;DHT22;48673;53.016;-2.258;2022-07-09T01:48:04;15.60;82.70
44533;DHT22;48673;53.016;-2.258;2022-07-09T01:50:48;15.60;82.70
44533;DHT22;48673;53.016;-2.258;2022-07-09T01:53:31;15.60;82.60
44533;DHT22;48673;53.016;-2.258;2022-07-09T01:56:06;15.70;82.80
44533;DHT22;48673;53.016;-2.258;2022-07-09T01:58:44;15.70;82.90
44533;DHT22;48673;53.016;-2.258;2022-07-09T02:01:13;15.70;83.10
44533;DHT22;48673;53.016;-2.258;2022-07-09T02:03:52;15.70;83.20
44533;DHT22;48673;53.016;-2.258;2022-07-09T02:06:23;15.70;83.40
44533;DHT22;48673;53.016;-2.258;2022-07-09T02:08:53;15.80;83.60
44533;DHT22;48673;53.016;-2.258;2022-07-09T02:11:22;15.70;83.70
44533;DHT22;48673;53.016;-2.258;2022-07-09T02:14:22;15.80;83.70
44533;DHT22;48673;53.016;-2.258;2022-07-09T02:17:38;15.80;83.70
44533;DHT22;48673;53.016;-2.258;2022-07-09T02:20:14;15.90;83.90
44533;DHT22;48673;53.016;-2.258;2022-07-09T02:22:48;15.80;84.00
44533;DHT22;48673;53.016;-2.258;2022-07-09T02:25:27;15.80;84.10
44533;DHT22;48673;53.016;-2.258;2022-07-09T02:27:56;15.80;84.20
44533;DHT22;48673;53.016;-2.258;2022-07-09T02:30:27;15.80;84.40
44533;DHT22;48673;53.016;-2.258;2022-07-09T02:32:57;15.80;84.30
44533;DHT22;48673;53.016;-2.258;2022-07-09T02:35:39;15.80;84.60
44533;DHT22;48673;53.016;-2.258;2022-07-09T02:38:10;15.80;84.80
44533;DHT22;48673;53.016;-2.258;2022-07-09T02:40:39;15.80;85.10
44533;DHT22;48673;53.016;-2.258;2022-07-09T02:43:08;15.80;85.30
44533;DHT22;48673;53.016;-2.258;2022-07-09T02:45:39;15.70;85.40
44533;DHT22;48673;53.016;-2.258;2022-07-09T02:48:10;15.60;85.60
44533;DHT22;48673;53.016;-2.258;2022-07-09T02:50:44;15.60;86.00
44533;DHT22;48673;53.016;-2.258;2022-07-09T02:53:14;15.60;86.30
44533;DHT22;48673;53.016;-2.258;2022-07-09T02:55:41;15.60;86.40
44533;DHT22;48673;53.016;-2.258;2022-07-09T02:58:11;15.70;86.50
44533;DHT22;48673;53.016;-2.258;2022-07-09T03:00:44;15.70;86.70
44533;DHT22;48673;53.016;-2.258;2022-07-09T03:03:12;15.70;86.60
44533;DHT22;48673;53.016;-2.258;2022-07-09T03:05:41;15.80;86.50
44533;DHT22;48673;53.016;-2.258;2022-07-09T03:08:11;15.80;86.50
44533;DHT22;48673;53.016;-2.258;2022-07-09T03:10:41;15.90;86.40
44533;DHT22;48673;53.016;-2.258;2022-07-09T03:13:12;15.90;86.40
44533;DHT22;48673;53.016;-2.258;2022-07-09T03:15:42;15.90;86.60
44533;DHT22;48673;53.016;-2.258;2022-07-09T03:18:11;15.90;86.50
44533;DHT22;48673;53.016;-2.258;2022-07-09T03:20:41;15.90;86.60
44533;DHT22;48673;53.016;-2.258;2022-07-09T03:23:10;15.90;86.70
44533;DHT22;48673;53.016;-2.258;2022-07-09T03:25:42;15.90;86.60
44533;DHT22;48673;53.016;-2.258;2022-07-09T03:28:14;15.90;86.60
44533;DHT22;48673;53.016;-2.258;2022-07-09T03:30:41;15.90;86.60
44533;DHT22;48673;53.016;-2.258;2022-07-09T03:33:09;15.90;86.50
44533;DHT22;48673;53.016;-2.258;2022-07-09T03:35:40;15.90;86.60
44533;DHT22;48673;53.016;-2.258;2022-07-09T03:38:11;15.90;86.80
44533;DHT22;48673;53.016;-2.258;2022-07-09T03:40:45;15.90;86.60
44533;DHT22;48673;53.016;-2.258;2022-07-09T03:43:17;15.80;86.70
44533;DHT22;48673;53.016;-2.258;2022-07-09T03:45:46;15.80;86.80
44533;DHT22;48673;53.016;-2.258;2022-07-09T03:48:23;15.80;86.90
44533;DHT22;48673;53.016;-2.258;2022-07-09T03:51:00;15.70;87.00
44533;DHT22;48673;53.016;-2.258;2022-07-09T03:53:28;15.70;87.10
44533;DHT22;48673;53.016;-2.258;2022-07-09T03:56:03;15.70;87.20
44533;DHT22;48673;53.016;-2.258;2022-07-09T03:58:45;15.70;87.20
44533;DHT22;48673;53.016;-2.258;2022-07-09T04:01:19;15.80;87.30
44533;DHT22;48673;53.016;-2.258;2022-07-09T04:03:54;15.80;87.30
44533;DHT22;48673;53.016;-2.258;2022-07-09T04:06:27;15.80;87.50
44533;DHT22;48673;53.016;-2.258;2022-07-09T04:08:56;15.80;87.50
44533;DHT22;48673;53.016;-2.258;2022-07-09T04:11:30;15.80;87.60
44533;DHT22;48673;53.016;-2.258;2022-07-09T04:14:01;15.80;87.60
44533;DHT22;48673;53.016;-2.258;2022-07-09T04:16:52;15.70;87.70
44533;DHT22;48673;53.016;-2.258;2022-07-09T04:19:24;15.80;87.70
44533;DHT22;48673;53.016;-2.258;2022-07-09T04:21:52;15.70;87.70
44533;DHT22;48673;53.016;-2.258;2022-07-09T04:24:28;15.70;87.70
44533;DHT22;48673;53.016;-2.258;2022-07-09T04:26:56;15.60;87.80
44533;DHT22;48673;53.016;-2.258;2022-07-09T04:29:23;15.50;87.90
44533;DHT22;48673;53.016;-2.258;2022-07-09T04:31:51;15.50;88.10
44533;DHT22;48673;53.016;-2.258;2022-07-09T04:34:19;15.50;88.30
44533;DHT22;48673;53.016;-2.258;2022-07-09T04:36:47;15.40;88.50
44533;DHT22;48673;53.016;-2.258;2022-07-09T04:39:15;15.40;88.60
44533;DHT22;48673;53.016;-2.258;2022-07-09T04:41:42;15.40;88.80
44533;DHT22;48673;53.016;-2.258;2022-07-09T04:44:11;15.40;88.80
44533;DHT22;48673;53.016;-2.258;2022-07-09T04:46:43;15.40;88.90
44533;DHT22;48673;53.016;-2.258;2022-07-09T04:49:10;15.40;89.00
44533;DHT22;48673;53.016;-2.258;2022-07-09T04:51:40;15.40;89.20
44533;DHT22;48673;53.016;-2.258;2022-07-09T04:54:09;15.40;89.30
44533;DHT22;48673;53.016;-2.258;2022-07-09T04:56:40;15.40;89.50
44533;DHT22;48673;53.016;-2.258;2022-07-09T04:59:18;15.40;89.60
44533;DHT22;48673;53.016;-2.258;2022-07-09T05:01:47;15.40;89.80
44533;DHT22;48673;53.016;-2.258;2022-07-09T05:04:16;15.40;89.80
44533;DHT22;48673;53.016;-2.258;2022-07-09T05:06:48;15.40;89.80
44533;DHT22;48673;53.016;-2.258;2022-07-09T05:09:16;15.40;90.00
44533;DHT22;48673;53.016;-2.258;2022-07-09T05:11:56;15.40;90.10
44533;DHT22;48673;53.016;-2.258;2022-07-09T05:14:41;15.40;90.00
44533;DHT22;48673;53.016;-2.258;2022-07-09T05:17:14;15.40;89.90
44533;DHT22;48673;53.016;-2.258;2022-07-09T05:19:43;15.30;89.90
44533;DHT22;48673;53.016;-2.258;2022-07-09T05:22:37;15.30;90.00
44533;DHT22;48673;53.016;-2.258;2022-07-09T05:25:19;15.30;90.10
44533;DHT22;48673;53.016;-2.258;2022-07-09T05:27:52;15.30;90.00
44533;DHT22;48673;53.016;-2.258;2022-07-09T05:30:39;15.40;89.90
44533;DHT22;48673;53.016;-2.258;2022-07-09T05:33:07;15.40;89.80
44533;DHT22;48673;53.016;-2.258;2022-07-09T05:35:42;15.30;89.60
44533;DHT22;48673;53.016;-2.258;2022-07-09T05:38:18;15.30;89.70
44533;DHT22;48673;53.016;-2.258;2022-07-09T05:41:29;15.30;89.80
44533;DHT22;48673;53.016;-2.258;2022-07-09T05:44:02;15.20;89.80
44533;DHT22;48673;53.016;-2.258;2022-07-09T05:47:02;15.20;89.80
44533;DHT22;48673;53.016;-2.258;2022-07-09T05:49:32;15.20;89.90
44533;DHT22;48673;53.016;-2.258;2022-07-09T05:52:07;15.20;90.10
44533;DHT22;48673;53.016;-2.258;2022-07-09T05:54:39;15.20;90.00
44533;DHT22;48673;53.016;-2.258;2022-07-09T05:57:40;15.20;89.90
44533;DHT22;48673;53.016;-2.258;2022-07-09T06:00:28;15.10;89.80
44533;DHT22;48673;53.016;-2.258;2022-07-09T06:03:04;15.10;89.80
44533;DHT22;48673;53.016;-2.258;2022-07-09T06:06:07;15.00;89.80
44533;DHT22;48673;53.016;-2.258;2022-07-09T06:09:28;14.90;89.80
44533;DHT22;48673;53.016;-2.258;2022-07-09T06:12:10;14.90;89.90
44533;DHT22;48673;53.016;-2.258;2022-07-09T06:14:57;15.00;89.90
44533;DHT22;48673;53.016;-2.258;2022-07-09T06:17:58;15.00;90.00
44533;DHT22;48673;53.016;-2.258;2022-07-09T06:20:48;15.20;90.00
44533;DHT22;48673;53.016;-2.258;2022-07-09T06:23:37;15.20;89.70
44533;DHT22;48673;53.016;-2.258;2022-07-09T06:26:10;15.30;89.50
44533;DHT22;48673;53.016;-2.258;2022-07-09T06:29:06;15.30;89.30
44533;DHT22;48673;53.016;-2.258;2022-07-09T06:31:39;15.40;89.20
44533;DHT22;48673;53.016;-2.258;2022-07-09T06:34:39;15.40;89.00
44533;DHT22;48673;53.016;-2.258;2022-07-09T06:37:09;15.50;88.70
44533;DHT22;48673;53.016;-2.258;2022-07-09T06:40:11;15.60;88.50
44533;DHT22;48673;53.016;-2.258;2022-07-09T06:43:07;15.50;88.30
44533;DHT22;48673;53.016;-2.258;2022-07-09T06:46:21;15.50;88.20
44533;DHT22;48673;53.016;-2.258;2022-07-09T06:49:38;15.50;88.10
44533;DHT22;48673;53.016;-2.258;2022-07-09T06:52:33;15.60;87.90
44533;DHT22;48673;53.016;-2.258;2022-07-09T06:55:23;15.60;87.60
44533;DHT22;48673;53.016;-2.258;2022-07-09T06:58:12;15.50;87.50
44533;DHT22;48673;53.016;-2.258;2022-07-09T07:04:10;15.60;87.20
44533;DHT22;48673;53.016;-2.258;2022-07-09T07:10:09;15.70;86.40
44533;DHT22;48673;53.016;-2.258;2022-07-09T07:12:58;15.80;86.10
44533;DHT22;48673;53.016;-2.258;2022-07-09T07:16:20;15.90;85.60
44533;DHT22;48673;53.016;-2.258;2022-07-09T07:18:57;15.90;85.10
44533;DHT22;48673;53.016;-2.258;2022-07-09T07:21:37;15.80;84.80
44533;DHT22;48673;53.016;-2.258;2022-07-09T07:24:14;15.90;84.30
44533;DHT22;48673;53.016;-2.258;2022-07-09T07:27:17;15.90;84.10
44533;DHT22;48673;53.016;-2.258;2022-07-09T07:30:11;15.90;83.90
44533;DHT22;48673;53.016;-2.258;2022-07-09T07:33:05;16.00;83.40
44533;DHT22;48673;53.016;-2.258;2022-07-09T07:35:54;16.20;82.70
44533;DHT22;48673;53.016;-2.258;2022-07-09T07:38:59;16.30;82.40
44533;DHT22;48673;53.016;-2.258;2022-07-09T07:41:57;16.40;81.90
44533;DHT22;48673;53.016;-2.258;2022-07-09T07:45:16;16.60;81.40
44533;DHT22;48673;53.016;-2.258;2022-07-09T07:48:19;16.70;80.60
44533;DHT22;48673;53.016;-2.258;2022-07-09T07:51:10;16.70;80.40
44533;DHT22;48673;53.016;-2.258;2022-07-09T07:53:39;16.80;80.70
44533;DHT22;48673;53.016;-2.258;2022-07-09T07:56:32;16.80;80.60
44533;DHT22;48673;53.016;-2.258;2022-07-09T07:59:20;16.90;80.10
44533;DHT22;48673;53.016;-2.258;2022-07-09T08:01:58;17.00;79.10
44533;DHT22;48673;53.016;-2.258;2022-07-09T08:05:00;17.10;78.30
44533;DHT22;48673;53.016;-2.258;2022-07-09T08:07:28;17.10;77.90
44533;DHT22;48673;53.016;-2.258;2022-07-09T08:09:58;17.10;77.20
44533;DHT22;48673;53.016;-2.258;2022-07-09T08:12:26;17.00;76.30
44533;DHT22;48673;53.016;-2.258;2022-07-09T08:15:23;16.90;76.00
44533;DHT22;48673;53.016;-2.258;2022-07-09T08:18:14;16.90;75.30
44533;DHT22;48673;53.016;-2.258;2022-07-09T08:20:57;16.90;75.60
44533;DHT22;48673;53.016;-2.258;2022-07-09T08:23:25;17.00;74.80
44533;DHT22;48673;53.016;-2.258;2022-07-09T08:26:10;17.00;73.80
44533;DHT22;48673;53.016;-2.258;2022-07-09T08:28:41;16.90;73.90
44533;DHT22;48673;53.016;-2.258;2022-07-09T08:31:36;16.90;74.10
44533;DHT22;48673;53.016;-2.258;2022-07-09T08:34:31;16.90;74.10
44533;DHT22;48673;53.016;-2.258;2022-07-09T08:37:14;17.00;74.30
44533;DHT22;48673;53.016;-2.258;2022-07-09T08:39:46;17.10;74.10
44533;DHT22;48673;53.016;-2.258;2022-07-09T08:45:41;17.30;72.50
44533;DHT22;48673;53.016;-2.258;2022-07-09T08:48:43;17.40;72.40
44533;DHT22;48673;53.016;-2.258;2022-07-09T08:51:19;17.50;71.70
44533;DHT22;48673;53.016;-2.258;2022-07-09T08:54:36;17.60;71.30
44533;DHT22;48673;53.016;-2.258;2022-07-09T09:00:20;17.70;70.20
44533;DHT22;48673;53.016;-2.258;2022-07-09T09:02:58;17.80;70.70
44533;DHT22;48673;53.016;-2.258;2022-07-09T09:05:39;17.90;69.10
44533;DHT22;48673;53.016;-2.258;2022-07-09T09:14:18;18.20;66.90
44533;DHT22;48673;53.016;-2.258;2022-07-09T09:16:47;18.30;67.10
44533;DHT22;48673;53.016;-2.258;2022-07-09T09:19:41;18.30;66.70
44533;DHT22;48673;53.016;-2.258;2022-07-09T09:23:02;18.20;66.00
44533;DHT22;48673;53.016;-2.258;2022-07-09T09:26:14;18.20;66.10
44533;DHT22;48673;53.016;-2.258;2022-07-09T09:29:14;18.30;66.40
44533;DHT22;48673;53.016;-2.258;2022-07-09T09:32:18;18.40;66.20
44533;DHT22;48673;53.016;-2.258;2022-07-09T09:35:05;18.40;65.50
44533;DHT22;48673;53.016;-2.258;2022-07-09T09:37:43;18.50;65.90
44533;DHT22;48673;53.016;-2.258;2022-07-09T09:40:45;18.60;65.70
44533;DHT22;48673;53.016;-2.258;2022-07-09T09:44:09;18.50;65.30
44533;DHT22;48673;53.016;-2.258;2022-07-09T09:46:47;18.40;65.20
44533;DHT22;48673;53.016;-2.258;2022-07-09T09:49:41;18.40;65.80
44533;DHT22;48673;53.016;-2.258;2022-07-09T09:52:29;18.50;65.80
44533;DHT22;48673;53.016;-2.258;2022-07-09T09:54:59;18.80;65.40
44533;DHT22;48673;53.016;-2.258;2022-07-09T09:57:28;18.90;64.50
44533;DHT22;48673;53.016;-2.258;2022-07-09T10:00:00;18.90;63.60
44533;DHT22;48673;53.016;-2.258;2022-07-09T10:02:42;18.90;63.90
44533;DHT22;48673;53.016;-2.258;2022-07-09T10:05:57;18.70;64.00
44533;DHT22;48673;53.016;-2.258;2022-07-09T10:08:24;18.50;64.20
44533;DHT22;48673;53.016;-2.258;2022-07-09T10:10:57;18.50;64.50
44533;DHT22;48673;53.016;-2.258;2022-07-09T10:13:56;18.60;63.80
44533;DHT22;48673;53.016;-2.258;2022-07-09T10:16:44;18.60;62.40
44533;DHT22;48673;53.016;-2.258;2022-07-09T10:20:03;18.50;61.90
44533;DHT22;48673;53.016;-2.258;2022-07-09T10:22:39;18.50;62.10
44533;DHT22;48673;53.016;-2.258;2022-07-09T10:25:11;18.60;62.10
44533;DHT22;48673;53.016;-2.258;2022-07-09T10:27:42;18.70;62.60
44533;DHT22;48673;53.016;-2.258;2022-07-09T10:30:30;18.70;62.80
44533;DHT22;48673;53.016;-2.258;2022-07-09T10:33:31;18.80;62.30
44533;DHT22;48673;53.016;-2.258;2022-07-09T10:36:13;18.80;61.90
44533;DHT22;48673;53.016;-2.258;2022-07-09T10:38:51;18.80;62.10
44533;DHT22;48673;53.016;-2.258;2022-07-09T10:41:35;18.70;61.70
44533;DHT22;48673;53.016;-2.258;2022-07-09T10:44:05;18.60;62.20
44533;DHT22;48673;53.016;-2.258;2022-07-09T10:46:53;18.70;62.00
44533;DHT22;48673;53.016;-2.258;2022-07-09T10:49:36;18.80;61.80
44533;DHT22;48673;53.016;-2.258;2022-07-09T10:52:12;18.80;61.40
44533;DHT22;48673;53.016;-2.258;2022-07-09T10:54:45;18.80;61.70
44533;DHT22;48673;53.016;-2.258;2022-07-09T10:57:29;18.90;61.80
44533;DHT22;48673;53.016;-2.258;2022-07-09T11:00:18;19.00;61.60
44533;DHT22;48673;53.016;-2.258;2022-07-09T11:08:46;19.00;61.00
44533;DHT22;48673;53.016;-2.258;2022-07-09T11:11:29;19.10;60.50
44533;DHT22;48673;53.016;-2.258;2022-07-09T11:13:58;19.20;60.80
44533;DHT22;48673;53.016;-2.258;2022-07-09T11:16:35;19.40;60.70
44533;DHT22;48673;53.016;-2.258;2022-07-09T11:19:15;19.40;60.80
44533;DHT22;48673;53.016;-2.258;2022-07-09T11:22:00;19.60;60.90
44533;DHT22;48673;53.016;-2.258;2022-07-09T11:24:46;19.80;60.50
44533;DHT22;48673;53.016;-2.258;2022-07-09T11:27:26;19.90;59.90
44533;DHT22;48673;53.016;-2.258;2022-07-09T11:30:19;19.90;59.90
44533;DHT22;48673;53.016;-2.258;2022-07-09T11:32:59;20.00;60.00
44533;DHT22;48673;53.016;-2.258;2022-07-09T11:35:45;20.10;59.60
44533;DHT22;48673;53.016;-2.258;2022-07-09T11:38:17;20.20;59.30
44533;DHT22;48673;53.016;-2.258;2022-07-09T11:40:48;20.30;59.10
44533;DHT22;48673;53.016;-2.258;2022-07-09T11:43:28;20.40;58.40
44533;DHT22;48673;53.016;-2.258;2022-07-09T11:46:01;20.40;58.10
44533;DHT22;48673;53.016;-2.258;2022-07-09T11:48:30;20.40;57.40
44533;DHT22;48673;53.016;-2.258;2022-07-09T11:51:07;20.40;57.10
44533;DHT22;48673;53.016;-2.258;2022-07-09T11:53:49;20.40;57.60
44533;DHT22;48673;53.016;-2.258;2022-07-09T11:56:20;20.60;57.50
44533;DHT22;48673;53.016;-2.258;2022-07-09T11:58:51;20.70;56.50
44533;DHT22;48673;53.016;-2.258;2022-07-09T12:01:28;20.80;56.10
44533;DHT22;48673;53.016;-2.258;2022-07-09T12:06:56;20.70;56.10
44533;DHT22;48673;53.016;-2.258;2022-07-09T12:09:33;20.60;55.10
44533;DHT22;48673;53.016;-2.258;2022-07-09T12:12:06;20.70;55.70
44533;DHT22;48673;53.016;-2.258;2022-07-09T12:14:38;20.80;55.00
44533;DHT22;48673;53.016;-2.258;2022-07-09T12:17:17;20.70;54.80
44533;DHT22;48673;53.016;-2.258;2022-07-09T12:19:50;20.70;55.00
44533;DHT22;48673;53.016;-2.258;2022-07-09T12:22:45;20.70;55.40
44533;DHT22;48673;53.016;-2.258;2022-07-09T12:25:20;20.80;55.40
44533;DHT22;48673;53.016;-2.258;2022-07-09T12:27:48;20.80;55.40
44533;DHT22;48673;53.016;-2.258;2022-07-09T12:30:16;20.90;54.80
44533;DHT22;48673;53.016;-2.258;2022-07-09T12:32:46;21.00;54.60
44533;DHT22;48673;53.016;-2.258;2022-07-09T12:35:27;21.00;54.60
44533;DHT22;48673;53.016;-2.258;2022-07-09T12:37:58;21.20;54.70
44533;DHT22;48673;53.016;-2.258;2022-07-09T12:40:26;21.30;54.30
44533;DHT22;48673;53.016;-2.258;2022-07-09T12:42:56;21.50;54.10
44533;DHT22;48673;53.016;-2.258;2022-07-09T12:45:25;21.60;53.10
44533;DHT22;48673;53.016;-2.258;2022-07-09T12:47:54;21.60;52.80
44533;DHT22;48673;53.016;-2.258;2022-07-09T12:50:36;21.70;52.50
44533;DHT22;48673;53.016;-2.258;2022-07-09T12:53:03;22.00;51.80
44533;DHT22;48673;53.016;-2.258;2022-07-09T12:55:40;22.40;51.60
44533;DHT22;48673;53.016;-2.258;2022-07-09T12:58:29;22.80;50.70
44533;DHT22;48673;53.016;-2.258;2022-07-09T13:00:57;23.20;50.10
44533;DHT22;48673;53.016;-2.258;2022-07-09T13:03:26;23.50;48.90
44533;DHT22;48673;53.016;-2.258;2022-07-09T13:06:11;23.80;47.60
44533;DHT22;48673;53.016;-2.258;2022-07-09T13:09:06;24.20;46.80
44533;DHT22;48673;53.016;-2.258;2022-07-09T13:11:51;24.80;45.90
44533;DHT22;48673;53.016;-2.258;2022-07-09T13:14:26;25.10;45.90
44533;DHT22;48673;53.016;-2.258;2022-07-09T13:16:58;25.60;45.40
44533;DHT22;48673;53.016;-2.258;2022-07-09T13:19:44;25.80;43.70
44533;DHT22;48673;53.016;-2.258;2022-07-09T13:22:13;25.40;43.90
44533;DHT22;48673;53.016;-2.258;2022-07-09T13:24:42;24.90;43.60
44533;DHT22;48673;53.016;-2.258;2022-07-09T13:27:11;24.60;44.20
44533;DHT22;48673;53.016;-2.258;2022-07-09T13:29:39;24.40;44.60
44533;DHT22;48673;53.016;-2.258;2022-07-09T13:32:09;24.40;44.60
44533;DHT22;48673;53.016;-2.258;2022-07-09T13:34:49;24.60;45.00
44533;DHT22;48673;53.016;-2.258;2022-07-09T13:37:20;24.90;44.00
44533;DHT22;48673;53.016;-2.258;2022-07-09T13:39:59;25.20;44.00
44533;DHT22;48673;53.016;-2.258;2022-07-09T13:42:28;25.60;42.70
44533;DHT22;48673;53.016;-2.258;2022-07-09T13:44:59;25.80;42.20
44533;DHT22;48673;53.016;-2.258;2022-07-09T13:47:36;25.90;42.00
44533;DHT22;48673;53.016;-2.258;2022-07-09T13:50:11;26.20;41.80
44533;DHT22;48673;53.016;-2.258;2022-07-09T13:52:49;26.50;41.00
44533;DHT22;48673;53.016;-2.258;2022-07-09T13:55:23;26.40;40.50
44533;DHT22;48673;53.016;-2.258;2022-07-09T13:57:51;26.20;40.30
44533;DHT22;48673;53.016;-2.258;2022-07-09T14:00:18;26.00;40.20
44533;DHT22;48673;53.016;-2.258;2022-07-09T14:02:52;25.90;40.20
44533;DHT22;48673;53.016;-2.258;2022-07-09T14:05:28;26.00;40.20
44533;DHT22;48673;53.016;-2.258;2022-07-09T14:07:55;26.40;39.70
44533;DHT22;48673;53.016;-2.258;2022-07-09T14:10:38;26.90;39.00
44533;DHT22;48673;53.016;-2.258;2022-07-09T14:13:16;27.50;38.10
44533;DHT22;48673;53.016;-2.258;2022-07-09T14:15:47;27.50;36.60
44533;DHT22;48673;53.016;-2.258;2022-07-09T14:18:16;27.00;37.10
44533;DHT22;48673;53.016;-2.258;2022-07-09T14:20:49;27.00;37.90
44533;DHT22;48673;53.016;-2.258;2022-07-09T14:23:20;27.40;37.20
44533;DHT22;48673;53.016;-2.258;2022-07-09T14:25:48;27.40;36.90
44533;DHT22;48673;53.016;-2.258;2022-07-09T14:28:20;27.30;37.30
44533;DHT22;48673;53.016;-2.258;2022-07-09T14:31:01;27.30;37.60
44533;DHT22;48673;53.016;-2.258;2022-07-09T14:33:31;27.50;37.30
44533;DHT22;48673;53.016;-2.258;2022-07-09T14:35:59;27.50;37.10
44533;DHT22;48673;53.016;-2.258;2022-07-09T14:38:28;27.40;35.70
44533;DHT22;48673;53.016;-2.258;2022-07-09T14:41:02;27.00;37.20
44533;DHT22;48673;53.016;-2.258;2022-07-09T14:43:30;26.90;37.50
44533;DHT22;48673;53.016;-2.258;2022-07-09T14:46:00;27.00;37.70
44533;DHT22;48673;53.016;-2.258;2022-07-09T14:48:29;27.30;37.20
44533;DHT22;48673;53.016;-2.258;2022-07-09T14:50:57;27.20;36.70
44533;DHT22;48673;53.016;-2.258;2022-07-09T14:53:25;27.00;37.00
44533;DHT22;48673;53.016;-2.258;2022-07-09T14:56:00;27.20;37.30
44533;DHT22;48673;53.016;-2.258;2022-07-09T14:58:29;27.30;36.80
44533;DHT22;48673;53.016;-2.258;2022-07-09T15:00:59;27.50;36.70
44533;DHT22;48673;53.016;-2.258;2022-07-09T15:03:28;27.70;36.60
44533;DHT22;48673;53.016;-2.258;2022-07-09T15:05:57;27.90;36.70
44533;DHT22;48673;53.016;-2.258;2022-07-09T15:08:27;27.90;36.30
44533;DHT22;48673;53.016;-2.258;2022-07-09T15:10:54;27.90;36.10
44533;DHT22;48673;53.016;-2.258;2022-07-09T15:13:24;27.80;36.10
44533;DHT22;48673;53.016;-2.258;2022-07-09T15:15:54;27.40;36.80
44533;DHT22;48673;53.016;-2.258;2022-07-09T15:18:43;27.40;37.50
44533;DHT22;48673;53.016;-2.258;2022-07-09T15:21:36;27.80;36.70
44533;DHT22;48673;53.016;-2.258;2022-07-09T15:24:06;27.90;36.20
44533;DHT22;48673;53.016;-2.258;2022-07-09T15:26:34;27.80;36.90
44533;DHT22;48673;53.016;-2.258;2022-07-09T15:29:03;28.00;37.20
44533;DHT22;48673;53.016;-2.258;2022-07-09T15:31:31;28.20;36.70
44533;DHT22;48673;53.016;-2.258;2022-07-09T15:36:44;27.60;36.30
44533;DHT22;48673;53.016;-2.258;2022-07-09T15:39:16;27.60;36.80
44533;DHT22;48673;53.016;-2.258;2022-07-09T15:41:44;27.90;36.50
44533;DHT22;48673;53.016;-2.258;2022-07-09T15:44:23;27.90;35.20
44533;DHT22;48673;53.016;-2.258;2022-07-09T15:46:51;27.70;35.60
44533;DHT22;48673;53.016;-2.258;2022-07-09T15:49:21;27.50;35.90
44533;DHT22;48673;53.016;-2.258;2022-07-09T15:51:55;27.40;36.30
44533;DHT22;48673;53.016;-2.258;2022-07-09T15:54:26;27.80;36.20
44533;DHT22;48673;53.016;-2.258;2022-07-09T15:56:59;28.10;35.00
44533;DHT22;48673;53.016;-2.258;2022-07-09T15:59:31;28.00;34.80
44533;DHT22;48673;53.016;-2.258;2022-07-09T16:02:00;27.90;35.00
44533;DHT22;48673;53.016;-2.258;2022-07-09T16:04:30;27.90;34.60
44533;DHT22;48673;53.016;-2.258;2022-07-09T16:06:58;28.00;34.70
44533;DHT22;48673;53.016;-2.258;2022-07-09T16:09:31;28.30;34.70
44533;DHT22;48673;53.016;-2.258;2022-07-09T16:11:58;28.00;34.90
44533;DHT22;48673;53.016;-2.258;2022-07-09T16:14:50;28.00;35.30
44533;DHT22;48673;53.016;-2.258;2022-07-09T16:17:22;28.10;35.10
44533;DHT22;48673;53.016;-2.258;2022-07-09T16:19:50;28.00;34.80
44533;DHT22;48673;53.016;-2.258;2022-07-09T16:22:20;28.00;34.90
44533;DHT22;48673;53.016;-2.258;2022-07-09T16:24:57;27.90;35.20
44533;DHT22;48673;53.016;-2.258;2022-07-09T16:27:50;27.90;35.40
44533;DHT22;48673;53.016;-2.258;2022-07-09T16:30:26;27.90;35.40
44533;DHT22;48673;53.016;-2.258;2022-07-09T16:33:08;27.90;35.70
44533;DHT22;48673;53.016;-2.258;2022-07-09T16:35:38;28.00;35.70
44533;DHT22;48673;53.016;-2.258;2022-07-09T16:38:13;28.10;35.70
44533;DHT22;48673;53.016;-2.258;2022-07-09T16:40:52;28.20;35.80
44533;DHT22;48673;53.016;-2.258;2022-07-09T16:43:24;28.30;35.80
44533;DHT22;48673;53.016;-2.258;2022-07-09T16:45:56;28.30;35.80
44533;DHT22;48673;53.016;-2.258;2022-07-09T16:48:42;28.20;35.60
44533;DHT22;48673;53.016;-2.258;2022-07-09T16:51:16;28.40;35.80
44533;DHT22;48673;53.016;-2.258;2022-07-09T16:53:48;28.30;35.70
44533;DHT22;48673;53.016;-2.258;2022-07-09T16:56:34;28.30;35.60
44533;DHT22;48673;53.016;-2.258;2022-07-09T16:59:07;28.30;35.30